Accueil
METAR-TAF:

METAR-TAF

Aéroports :

Mackall Army Airfield

Camp Mackall, Caroline du Nord, États-Unis

latitude: 35-02N, longitude: 079-30W, altitude: 115 m

Observation

Le bulletin a été fait il y a 35 minutes, à 21:12 UTC
Vent 9 kt de nord/nord-ouest
Température 15°C
Humidité 44%
Pression 1021 hPa
Visibilité: 16.1 km
Ciel clair

METAR: KHFF 202112Z AUTO 34009KT 10SM CLR 15/03 A3014 RMK AO2 PRESRR SLP223 $

Heure: 16:47 (21:47 UTC)


TAF: absent

Observations et prévisions météorologiques de plus de 4000 aéroports (messages METAR et TAF).

Les stations disponibles sont représentées par des disques jaunes et rouges sur la carte.

Passer la souris dessus pour voir le nom de la station.

Cliquer dessus pour voir les observations et prévisions météorologiques.

Pour changer de carte: cliquez sur les boutons verts avec une croix noire pour zoomer, sur le bouton vert avec un tiret pour effectuer un zoom arrière, ou sur les flèches vertes pour les cartes adjacentes.


METAR-TAF: